• Join FlightAware (Why Join?)
  • Login
  • US Flag 
06:44AM EDT


 

Airport Tracker/Info


-or-


 

Live Flight TrackerFlight Track Log ✈ AWI3970 ✈ 30-Jun-2013 ✈ KPHL - KALB

Flight Track Log - Related Links

Times and Time Zones

All times are in EDT time to prevent confusion due to time zone crossing. See the AWI3970 flight status page for this flight to view local times or setup timezone preferences in your user account.

Time Position Orientation Groundspeed Altitude Reporting Facility
EDT Latitude Longitude Course Direction KTS MPH feet Rate Location/Type
11:15PM 39.8667 -75.2167 North 146 168 900  Level Philadelphia TRACON
11:16PM 39.8167 -75.2000 166° South 191 220 2,300 1,740 Climbing Philadelphia TRACON
11:17PM 39.8158 -74.8625 105° East  Level FlightAware Approximate
11:17PM 39.7833 -75.1333 123° Southeast 255 293 4,400  Level Philadelphia TRACON
11:18PM 39.7908 -74.7373 105° East  Level FlightAware Approximate
11:18PM 39.7833 -75.0500 90° East 286 329 6,700  Level Philadelphia TRACON
11:19PM 39.8387 -74.6447 37° Northeast  Level FlightAware Approximate
11:20PM 39.9177 -74.5667 North  Level FlightAware Approximate
11:20PM 39.7894 -74.8286 88° East 295 339 10,600  Level New York Center
11:21PM 39.8125 -74.7031 77° East 319 367 11,900 1,320 Climbing New York Center
11:22PM 39.8922 -74.6208 38° Northeast 318 366 13,300 1,560 Climbing New York Center
11:23PM 39.9764 -74.5389 37° Northeast 339 390 15,100 1,560 Climbing New York Center
11:24PM 40.0442 -74.4394 48° Northeast 363 418 16,500 1,380 Climbing New York Center
11:25PM 40.1000 -74.3150 60° Northeast 358 412 17,900 960 Climbing New York Center
11:26PM 40.1956 -74.2519 27° Northeast 368 423 18,500 600 Climbing New York Center
11:27PM 40.2892 -74.1886 27° Northeast 386 444 19,200 720 Climbing New York Center
11:29PM 40.5175 -74.0397 26° Northeast 415 478 21,000 720 Climbing Boston Center
11:30PM 40.6478 -73.9608 25° Northeast 420 483 21,600 540 Climbing Boston Center
11:31PM 40.7592 -73.8894 26° Northeast 432 497 22,300 600 Climbing Boston Center
11:32PM 40.8753 -73.7686 38° Northeast 437 503 23,000 600 Climbing Boston Center
11:33PM 40.9783 -73.6883 30° Northeast 437 503 23,600 480 Climbing Boston Center
11:34PM 41.1033 -73.6961 357° North 408 470 24,000 180 Climbing Boston Center
11:35PM 41.2283 -73.7042 357° North 424 488 24,000  Level Boston Center
11:36PM 41.3533 -73.7122 357° North 437 503 24,000 -480 Level Boston Center
11:37PM 41.4700 -73.7200 357° North 437 503 23,100 -1,200 Descending Boston Center
11:38PM 41.5886 -73.7253 358° North 437 503 21,600 -1,560 Descending Boston Center
11:39PM 41.6989 -73.7331 357° North 418 481 20,000 -1,620 Descending Boston Center
11:40PM 41.8031 -73.7406 357° North 387 445 18,400 -1,680 Descending Boston Center
11:42PM 41.9322 -73.7461 358° North 377 434 16,400 -1,680 Descending Boston Center
11:42PM 41.9925 -73.7558 353° North 388 447 15,500 -1,620 Descending Boston Center
11:43PM 42.0967 -73.7636 357° North 383 441 13,900 -1,620 Descending Boston Center
11:44PM 42.2008 -73.7714 357° North 369 425 12,300 -1,800 Descending Boston Center
11:45PM 42.2925 -73.7761 358° North 327 376 10,300 -1,980 Descending Boston Center
11:46PM 42.3819 -73.7808 358° North 297 342 8,300 -1,980 Descending Boston Center
11:47PM 42.4278 -73.7817 359° North 294 338 7,200 -2,100 Descending Boston Center
11:48PM 42.5050 -73.7892 356° North 283 326 5,000 -2,040 Descending Boston Center
11:49PM 42.5800 -73.7964 356° North 277 319 3,200 -1,320 Descending Boston Center
11:50PM 42.6444 -73.8033 355° North 253 291 2,400 -540 Descending Boston Center
11:51PM 42.7069 -73.8133 353° North 244 281 2,200 -240 Descending Boston Center